createdAt,value
2019-02-17T00:00:02.559Z,93.34
2019-02-17T00:01:08.279Z,93.37
2019-02-17T00:02:14.291Z,93.50
2019-02-17T00:03:20.189Z,93.97
2019-02-17T00:04:26.130Z,93.75
2019-02-17T00:05:32.079Z,94.06
2019-02-17T00:06:38.972Z,94.15
2019-02-17T00:07:47.212Z,94.40
2019-02-17T00:08:53.162Z,94.37
2019-02-17T00:09:59.106Z,93.92
2019-02-17T00:11:05.141Z,93.38
2019-02-17T00:12:11.088Z,93.50
2019-02-17T00:13:16.982Z,93.43
2019-02-17T00:14:23.970Z,94.04
2019-02-17T00:15:28.549Z,93.94
2019-02-17T00:16:34.465Z,93.68
2019-02-17T00:17:40.435Z,93.28
2019-02-17T00:18:46.512Z,93.54
2019-02-17T00:19:52.446Z,93.91
2019-02-17T00:20:58.365Z,95.42
2019-02-17T00:22:05.288Z,95.42
2019-02-17T00:23:11.269Z,96.17
2019-02-17T00:24:17.183Z,95.94
2019-02-17T00:25:23.079Z,96.19
2019-02-17T00:26:29.000Z,96.07
2019-02-17T00:27:35.867Z,96.07
2019-02-17T00:28:42.653Z,96.21
2019-02-17T00:29:48.606Z,95.74
2019-02-17T00:30:53.815Z,95.72
2019-02-17T00:31:59.736Z,95.50
2019-02-17T00:33:05.674Z,95.52
2019-02-17T00:34:13.667Z,95.22
2019-02-17T00:35:18.094Z,95.08
2019-02-17T00:36:24.013Z,94.86
2019-02-17T00:37:29.650Z,95.18
2019-02-17T00:38:35.573Z,95.71
2019-02-17T00:39:41.514Z,95.99
2019-02-17T00:40:47.433Z,96.00
2019-02-17T00:41:52.998Z,95.80
2019-02-17T00:42:59.021Z,95.30
2019-02-17T00:44:04.959Z,94.68
2019-02-17T00:45:10.210Z,93.85
2019-02-17T00:46:16.120Z,93.58
2019-02-17T00:47:22.028Z,93.19
2019-02-17T00:48:28.014Z,93.16
2019-02-17T00:49:34.370Z,93.21
2019-02-17T00:50:39.903Z,93.48
2019-02-17T00:51:45.838Z,93.51
2019-02-17T00:52:52.173Z,93.68
2019-02-17T00:53:58.069Z,93.42
2019-02-17T00:55:03.266Z,93.57
2019-02-17T00:56:09.252Z,93.64
2019-02-17T00:57:16.395Z,93.85
2019-02-17T00:58:22.317Z,94.01
2019-02-17T00:59:28.221Z,94.75
2019-02-17T01:00:34.100Z,95.13
2019-02-17T01:01:39.982Z,94.91
2019-02-17T01:02:45.889Z,94.92
2019-02-17T01:03:51.939Z,94.77
2019-02-17T01:04:57.860Z,94.79
2019-02-17T01:06:03.809Z,94.65
2019-02-17T01:07:13.317Z,94.84
2019-02-17T01:08:19.240Z,95.04
2019-02-17T01:09:24.871Z,94.53
2019-02-17T01:10:31.026Z,93.98
2019-02-17T01:11:36.988Z,93.62
2019-02-17T01:12:42.871Z,93.40
2019-02-17T01:13:48.799Z,93.68
2019-02-17T01:14:54.670Z,93.57
2019-02-17T01:16:00.561Z,93.71
2019-02-17T01:17:06.085Z,94.16
2019-02-17T01:18:12.026Z,94.54
2019-02-17T01:19:21.443Z,94.72
2019-02-17T01:20:27.073Z,94.75
2019-02-17T01:21:32.978Z,95.20
2019-02-17T01:22:38.913Z,95.23
2019-02-17T01:23:44.880Z,95.26
2019-02-17T01:24:50.785Z,95.34
2019-02-17T01:25:56.698Z,95.31
2019-02-17T01:27:02.590Z,95.52
2019-02-17T01:28:08.160Z,95.51
2019-02-17T01:29:20.548Z,95.49
2019-02-17T01:30:21.623Z,95.60
2019-02-17T01:31:28.201Z,95.69
2019-02-17T01:32:34.568Z,95.28
2019-02-17T01:33:40.534Z,95.19
2019-02-17T01:34:46.536Z,95.42
2019-02-17T01:35:52.420Z,95.48
2019-02-17T01:36:58.341Z,95.61
2019-02-17T01:38:03.931Z,95.47
2019-02-17T01:39:09.531Z,95.54
2019-02-17T01:40:15.447Z,95.64
2019-02-17T01:41:21.358Z,95.98
2019-02-17T01:42:27.270Z,96.35
2019-02-17T01:43:32.939Z,96.03
2019-02-17T01:44:38.903Z,96.09
2019-02-17T01:45:44.803Z,95.16
2019-02-17T01:46:50.691Z,94.25
2019-02-17T01:47:56.634Z,93.49
2019-02-17T01:49:04.321Z,93.05
2019-02-17T01:50:09.579Z,93.49
2019-02-17T01:51:15.523Z,94.69
2019-02-17T01:52:22.013Z,95.53
2019-02-17T01:53:29.416Z,96.20
2019-02-17T01:54:35.344Z,96.27
2019-02-17T01:55:42.192Z,96.24
2019-02-17T01:56:48.073Z,95.64
2019-02-17T01:57:53.972Z,94.96
2019-02-17T01:58:59.928Z,94.05
2019-02-17T02:00:14.423Z,94.01
2019-02-17T02:01:21.239Z,94.64
2019-02-17T02:02:26.112Z,95.73
2019-02-17T02:03:32.027Z,95.86
2019-02-17T02:04:37.991Z,95.91
2019-02-17T02:05:43.903Z,95.96
2019-02-17T02:06:49.790Z,95.89
2019-02-17T02:07:55.713Z,95.79
2019-02-17T02:09:01.639Z,95.87
2019-02-17T02:10:07.899Z,95.82
2019-02-17T02:11:13.765Z,95.69
2019-02-17T02:12:19.695Z,95.78
2019-02-17T02:13:25.603Z,96.17
2019-02-17T02:14:31.327Z,96.12
2019-02-17T02:15:37.211Z,95.86
2019-02-17T02:16:43.093Z,95.26
2019-02-17T02:17:49.893Z,94.98
2019-02-17T02:18:55.783Z,95.40
2019-02-17T02:20:02.793Z,94.74
2019-02-17T02:21:08.791Z,94.14
2019-02-17T02:22:14.720Z,94.98
2019-02-17T02:23:20.660Z,95.94
2019-02-17T02:24:26.616Z,96.49
2019-02-17T02:25:32.499Z,96.59
2019-02-17T02:26:38.971Z,96.60
2019-02-17T02:27:44.910Z,97.00
2019-02-17T02:28:51.031Z,97.29
2019-02-17T02:29:58.650Z,97.45
2019-02-17T02:31:04.538Z,97.76
2019-02-17T02:32:10.429Z,97.93
2019-02-17T02:33:16.327Z,98.01
2019-02-17T02:34:22.257Z,96.92
2019-02-17T02:35:28.168Z,96.43
2019-02-17T02:36:34.085Z,96.50
2019-02-17T02:37:39.960Z,96.85
2019-02-17T02:38:45.902Z,96.55
2019-02-17T02:39:51.841Z,96.10
2019-02-17T02:40:57.721Z,95.98
2019-02-17T02:42:03.630Z,95.71
2019-02-17T02:43:09.537Z,96.13
2019-02-17T02:44:15.516Z,96.38
2019-02-17T02:45:21.431Z,96.14
2019-02-17T02:46:31.715Z,96.39
2019-02-17T02:47:37.631Z,96.47
2019-02-17T02:48:43.562Z,96.01
2019-02-17T02:49:49.495Z,95.83
2019-02-17T02:50:55.424Z,96.19
2019-02-17T02:52:01.349Z,96.44
2019-02-17T02:53:07.287Z,96.54
2019-02-17T02:54:13.206Z,97.08
2019-02-17T02:55:20.005Z,97.36
2019-02-17T02:56:25.923Z,97.72
2019-02-17T02:57:31.835Z,98.09
2019-02-17T02:58:37.799Z,98.16
2019-02-17T02:59:52.186Z,98.29
2019-02-17T03:00:49.643Z,98.45
2019-02-17T03:01:55.559Z,98.40
2019-02-17T03:03:01.459Z,98.02
2019-02-17T03:04:07.370Z,97.93
2019-02-17T03:05:13.324Z,97.64
2019-02-17T03:06:19.784Z,97.37
2019-02-17T03:07:25.736Z,97.15
2019-02-17T03:08:32.040Z,97.40
2019-02-17T03:09:37.938Z,96.94
2019-02-17T03:10:43.866Z,96.61
2019-02-17T03:11:49.786Z,96.54
2019-02-17T03:12:55.735Z,96.72
2019-02-17T03:14:01.613Z,97.26
2019-02-17T03:15:07.560Z,97.69
2019-02-17T03:16:13.130Z,97.82
2019-02-17T03:17:22.392Z,98.00
2019-02-17T03:18:28.787Z,98.26
2019-02-17T03:19:34.747Z,98.60
2019-02-17T03:20:40.643Z,99.02
2019-02-17T03:21:46.598Z,99.06
2019-02-17T03:22:52.489Z,99.00
2019-02-17T03:23:58.398Z,98.99
2019-02-17T03:25:03.644Z,99.34
2019-02-17T03:26:09.560Z,99.38
2019-02-17T03:27:15.445Z,98.71
2019-02-17T03:28:21.377Z,98.55
2019-02-17T03:29:27.341Z,98.48
2019-02-17T03:30:33.253Z,98.17
2019-02-17T03:31:39.192Z,98.38
2019-02-17T03:32:45.126Z,99.02
2019-02-17T03:33:51.038Z,98.93
2019-02-17T03:34:57.018Z,98.71
2019-02-17T03:36:05.684Z,99.12
2019-02-17T03:37:11.593Z,99.35
2019-02-17T03:38:17.715Z,99.39
2019-02-17T03:39:24.185Z,99.71
2019-02-17T03:40:30.136Z,99.41
2019-02-17T03:41:36.121Z,99.19
2019-02-17T03:42:42.226Z,99.25
2019-02-17T03:43:48.137Z,99.17
2019-02-17T03:44:54.124Z,99.14
2019-02-17T03:46:00.090Z,99.09
2019-02-17T03:47:05.686Z,99.13
2019-02-17T03:48:11.593Z,98.97
2019-02-17T03:49:17.181Z,98.93
2019-02-17T03:50:23.127Z,98.34
2019-02-17T03:51:29.092Z,98.54
2019-02-17T03:52:35.026Z,98.89
2019-02-17T03:53:40.938Z,99.29
2019-02-17T03:54:46.842Z,99.33
2019-02-17T03:55:52.795Z,99.51
2019-02-17T03:56:58.671Z,99.68
2019-02-17T03:58:04.264Z,99.88
2019-02-17T03:59:10.169Z,100.00
2019-02-17T04:00:17.457Z,99.95
2019-02-17T04:01:22.100Z,99.83
2019-02-17T04:02:28.032Z,99.90
2019-02-17T04:03:33.946Z,99.89
2019-02-17T04:04:39.915Z,99.98
2019-02-17T04:05:45.805Z,100.00
2019-02-17T04:06:51.722Z,99.99
2019-02-17T04:07:58.175Z,99.97
2019-02-17T04:09:09.691Z,99.94
2019-02-17T04:10:15.278Z,99.66
2019-02-17T04:11:21.170Z,99.53
2019-02-17T04:12:27.095Z,99.47
2019-02-17T04:13:33.012Z,99.36
2019-02-17T04:14:38.895Z,99.24
2019-02-17T04:15:44.132Z,99.23
2019-02-17T04:16:50.048Z,99.19
2019-02-17T04:17:56.014Z,99.26
2019-02-17T04:19:02.839Z,99.39
2019-02-17T04:20:08.053Z,99.29
2019-02-17T04:21:14.589Z,99.42
2019-02-17T04:22:20.499Z,99.60
2019-02-17T04:23:31.434Z,99.72
2019-02-17T04:24:32.372Z,99.50
2019-02-17T04:25:38.262Z,98.74
2019-02-17T04:26:44.169Z,98.15
2019-02-17T04:27:50.130Z,98.26
2019-02-17T04:28:56.016Z,99.23
2019-02-17T04:30:01.952Z,99.05
2019-02-17T04:31:07.918Z,99.60
2019-02-17T04:32:13.850Z,100.00
2019-02-17T04:33:19.509Z,100.00
2019-02-17T04:34:25.452Z,100.00
2019-02-17T04:35:31.321Z,100.00
2019-02-17T04:36:37.233Z,99.57
2019-02-17T04:37:42.785Z,98.89
2019-02-17T04:38:48.784Z,98.05
2019-02-17T04:39:54.707Z,97.79
2019-02-17T04:41:00.637Z,97.64
2019-02-17T04:42:06.571Z,97.79
2019-02-17T04:43:12.507Z,98.17
2019-02-17T04:44:18.409Z,99.33
2019-02-17T04:45:24.349Z,100.00
2019-02-17T04:46:30.299Z,100.00
2019-02-17T04:47:36.241Z,100.00
2019-02-17T04:48:42.234Z,100.00
2019-02-17T04:49:48.183Z,100.00
2019-02-17T04:50:53.958Z,100.00
2019-02-17T04:51:59.911Z,100.00
2019-02-17T04:53:05.818Z,100.00
2019-02-17T04:54:11.887Z,100.00
2019-02-17T04:55:18.087Z,100.00
2019-02-17T04:56:24.210Z,100.00
2019-02-17T04:57:30.137Z,100.00
2019-02-17T04:58:36.151Z,100.00
2019-02-17T04:59:42.083Z,100.00
2019-02-17T05:00:49.942Z,100.00
2019-02-17T05:01:53.925Z,100.00
2019-02-17T05:02:59.461Z,100.00
2019-02-17T05:04:05.452Z,100.00
2019-02-17T05:05:10.665Z,100.00
2019-02-17T05:06:16.587Z,100.00
2019-02-17T05:07:22.541Z,100.00
2019-02-17T05:08:28.501Z,100.00
2019-02-17T05:09:34.464Z,100.00
2019-02-17T05:10:40.433Z,100.00
2019-02-17T05:11:46.343Z,100.00
2019-02-17T05:12:52.246Z,100.00
2019-02-17T05:13:58.215Z,100.00
2019-02-17T05:15:03.892Z,100.00
2019-02-17T05:16:10.113Z,100.00
2019-02-17T05:17:16.089Z,100.00
2019-02-17T05:18:22.017Z,100.00
2019-02-17T05:19:28.898Z,100.00
2019-02-17T05:20:35.136Z,100.00
2019-02-17T05:21:41.119Z,100.00
2019-02-17T05:22:46.754Z,100.00
2019-02-17T05:23:52.737Z,100.00
2019-02-17T05:25:00.411Z,100.00
2019-02-17T05:26:06.813Z,100.00
2019-02-17T05:27:12.737Z,100.00
2019-02-17T05:28:18.687Z,100.00
2019-02-17T05:29:24.818Z,100.00
2019-02-17T05:30:30.994Z,100.00
2019-02-17T05:31:37.143Z,100.00
2019-02-17T05:32:44.271Z,99.55
2019-02-17T05:33:50.244Z,98.92
2019-02-17T05:34:58.957Z,98.48
2019-02-17T05:36:03.255Z,98.11
2019-02-17T05:37:10.125Z,98.10
2019-02-17T05:38:16.143Z,98.24
2019-02-17T05:39:22.255Z,98.41
2019-02-17T05:40:28.342Z,98.39
2019-02-17T05:41:35.158Z,98.88
2019-02-17T05:42:41.100Z,99.40
2019-02-17T05:43:47.017Z,99.71
2019-02-17T05:44:52.989Z,99.94
2019-02-17T05:45:59.140Z,100.00
2019-02-17T05:47:05.181Z,100.00
2019-02-17T05:48:11.110Z,100.00
2019-02-17T05:49:16.955Z,100.00
2019-02-17T05:50:23.951Z,100.00
2019-02-17T05:51:30.183Z,100.00
2019-02-17T05:52:36.359Z,100.00
2019-02-17T05:53:42.296Z,100.00
2019-02-17T05:54:50.396Z,100.00
2019-02-17T05:55:54.426Z,100.00
2019-02-17T05:57:00.481Z,100.00
2019-02-17T05:58:07.552Z,100.00
2019-02-17T05:59:15.194Z,100.00
2019-02-17T06:00:21.038Z,100.00
2019-02-17T06:01:27.039Z,100.00
2019-02-17T06:02:34.628Z,100.00
2019-02-17T06:03:40.579Z,100.00
2019-02-17T06:04:46.573Z,100.00
2019-02-17T06:05:55.727Z,100.00
2019-02-17T06:07:02.577Z,100.00
2019-02-17T06:08:08.553Z,100.00
2019-02-17T06:09:15.460Z,100.00
2019-02-17T06:10:21.725Z,100.00
2019-02-17T06:11:27.960Z,99.43
2019-02-17T06:12:34.035Z,99.51
2019-02-17T06:13:40.068Z,99.62
2019-02-17T06:14:46.133Z,100.00
2019-02-17T06:15:52.107Z,100.00
2019-02-17T06:16:58.152Z,100.00
2019-02-17T06:18:04.220Z,100.00
2019-02-17T06:19:10.309Z,100.00
2019-02-17T06:20:16.380Z,100.00
2019-02-17T06:21:22.486Z,100.00
2019-02-17T06:22:28.637Z,100.00
2019-02-17T06:23:34.821Z,100.00
2019-02-17T06:24:40.855Z,100.00
2019-02-17T06:25:46.873Z,100.00
2019-02-17T06:26:52.940Z,100.00
2019-02-17T06:27:58.898Z,100.00
2019-02-17T06:29:04.814Z,100.00
2019-02-17T06:30:10.267Z,100.00
2019-02-17T06:31:17.256Z,100.00
2019-02-17T06:32:23.378Z,100.00
2019-02-17T06:33:29.476Z,100.00
2019-02-17T06:34:35.483Z,100.00
2019-02-17T06:35:41.162Z,100.00
2019-02-17T06:36:47.143Z,100.00
2019-02-17T06:37:53.270Z,100.00
2019-02-17T06:38:59.328Z,100.00
2019-02-17T06:40:04.575Z,100.00
2019-02-17T06:41:10.628Z,100.00
2019-02-17T06:42:16.594Z,100.00
2019-02-17T06:43:23.277Z,100.00
2019-02-17T06:44:29.465Z,100.00
2019-02-17T06:45:36.485Z,100.00
2019-02-17T06:46:42.266Z,100.00
2019-02-17T06:47:49.072Z,100.00
2019-02-17T06:48:55.003Z,100.00
2019-02-17T06:50:01.943Z,100.00
2019-02-17T06:51:08.177Z,100.00
2019-02-17T06:52:14.277Z,100.00
2019-02-17T06:53:20.206Z,100.00
2019-02-17T06:54:26.140Z,100.00
2019-02-17T06:55:31.858Z,100.00
2019-02-17T07:08:38.257Z,100.00
2019-02-17T07:09:44.753Z,100.00
2019-02-17T07:10:50.675Z,100.00
2019-02-17T07:11:56.835Z,100.00
2019-02-17T07:13:02.514Z,100.00
2019-02-17T07:14:08.432Z,100.00
2019-02-17T07:15:14.123Z,100.00
2019-02-17T07:16:19.827Z,100.00
2019-02-17T07:17:25.782Z,100.00
2019-02-17T07:18:31.670Z,100.00
2019-02-17T07:19:37.595Z,100.00
2019-02-17T07:20:43.535Z,100.00
2019-02-17T07:21:49.446Z,100.00
2019-02-17T07:22:55.400Z,100.00
2019-02-17T07:24:01.323Z,100.00
2019-02-17T07:25:06.948Z,100.00
2019-02-17T07:26:12.929Z,100.00
2019-02-17T07:27:18.816Z,100.00
2019-02-17T07:28:24.814Z,100.00
2019-02-17T07:29:30.719Z,100.00
2019-02-17T07:30:36.652Z,100.00
2019-02-17T07:31:42.632Z,100.00
2019-02-17T07:32:48.629Z,100.00
2019-02-17T07:33:54.562Z,100.00
2019-02-17T07:35:00.509Z,100.00
2019-02-17T07:36:06.435Z,100.00
2019-02-17T07:37:12.399Z,100.00
2019-02-17T07:38:18.332Z,100.00
2019-02-17T07:39:24.270Z,100.00
2019-02-17T07:40:30.194Z,100.00
2019-02-17T07:41:36.151Z,100.00
2019-02-17T07:42:42.058Z,100.00
2019-02-17T07:43:47.958Z,100.00
2019-02-17T07:44:53.845Z,100.00
2019-02-17T07:45:59.754Z,100.00
2019-02-17T07:47:05.695Z,100.00
2019-02-17T07:48:11.590Z,100.00
2019-02-17T07:49:17.475Z,100.00
2019-02-17T07:50:23.062Z,100.00
2019-02-17T07:51:29.018Z,100.00
2019-02-17T07:52:34.993Z,100.00
2019-02-17T07:53:41.598Z,100.00
2019-02-17T07:54:47.800Z,100.00
2019-02-17T07:55:53.751Z,100.00
2019-02-17T07:56:59.626Z,100.00
2019-02-17T07:58:05.535Z,100.00
2019-02-17T07:59:11.465Z,100.00
2019-02-17T08:00:17.395Z,100.00
2019-02-17T08:01:23.383Z,100.00
2019-02-17T08:02:29.260Z,100.00
2019-02-17T08:03:35.214Z,100.00
2019-02-17T08:04:41.147Z,100.00
2019-02-17T08:05:47.135Z,100.00
2019-02-17T08:06:53.263Z,100.00
2019-02-17T08:07:59.416Z,100.00
2019-02-17T08:09:04.578Z,100.00
2019-02-17T08:10:10.216Z,100.00
2019-02-17T08:11:16.248Z,100.00
2019-02-17T08:12:22.207Z,100.00
2019-02-17T08:13:28.204Z,100.00
2019-02-17T08:14:34.798Z,100.00
2019-02-17T08:15:41.103Z,99.72
2019-02-17T08:16:47.337Z,99.45
2019-02-17T08:17:53.336Z,99.06
2019-02-17T08:18:59.462Z,98.06
2019-02-17T08:20:04.707Z,97.86
2019-02-17T08:21:11.019Z,97.25
2019-02-17T08:22:17.201Z,96.95
2019-02-17T08:23:23.179Z,96.61
2019-02-17T08:24:30.057Z,96.33
2019-02-17T08:25:36.049Z,96.00
2019-02-17T08:26:42.288Z,95.50
2019-02-17T08:27:48.348Z,95.52
2019-02-17T08:28:54.390Z,95.27
2019-02-17T08:30:00.511Z,94.76
2019-02-17T08:31:06.599Z,93.95
2019-02-17T08:32:12.536Z,93.78
2019-02-17T08:33:18.469Z,93.83
2019-02-17T08:34:24.403Z,93.29
2019-02-17T08:35:30.682Z,91.96
2019-02-17T08:36:37.072Z,91.65
2019-02-17T08:37:43.012Z,91.61
2019-02-17T08:38:48.959Z,91.61
2019-02-17T08:39:54.899Z,91.34
2019-02-17T08:41:00.942Z,91.83
2019-02-17T08:42:06.783Z,92.67
2019-02-17T08:43:12.694Z,92.35
2019-02-17T08:44:18.625Z,91.78
2019-02-17T08:45:24.510Z,90.73
2019-02-17T08:46:30.447Z,90.40
2019-02-17T08:47:36.433Z,90.49
2019-02-17T08:48:42.854Z,90.68
2019-02-17T08:49:48.810Z,90.08
2019-02-17T08:50:54.736Z,89.17
2019-02-17T08:52:00.954Z,88.71
2019-02-17T08:53:06.696Z,89.25
2019-02-17T08:54:12.593Z,87.91
2019-02-17T08:55:18.478Z,89.56
2019-02-17T08:56:25.002Z,89.82
2019-02-17T08:57:31.278Z,86.98
2019-02-17T08:58:37.170Z,86.16
2019-02-17T08:59:43.066Z,86.13
2019-02-17T09:00:48.987Z,86.20
2019-02-17T09:02:05.211Z,85.96
2019-02-17T09:03:00.892Z,85.63
2019-02-17T09:04:06.866Z,85.43
2019-02-17T09:05:12.384Z,85.26
2019-02-17T09:06:18.353Z,83.50
2019-02-17T09:07:24.271Z,82.88
2019-02-17T09:08:30.210Z,82.44
2019-02-17T09:09:36.205Z,81.59
2019-02-17T09:10:42.128Z,81.63
2019-02-17T09:11:48.102Z,82.04
2019-02-17T09:12:54.060Z,80.96
2019-02-17T09:13:59.998Z,80.20
2019-02-17T09:15:05.231Z,79.51
2019-02-17T09:16:11.125Z,79.45
2019-02-17T09:17:17.094Z,78.61
2019-02-17T09:18:23.705Z,78.19
2019-02-17T09:19:30.117Z,78.48
2019-02-17T09:20:36.064Z,76.16
2019-02-17T09:21:41.985Z,77.33
2019-02-17T09:22:48.087Z,77.65
2019-02-17T09:23:53.965Z,76.46
2019-02-17T09:24:59.897Z,76.17
2019-02-17T09:26:05.475Z,76.47
2019-02-17T09:27:11.408Z,76.31
2019-02-17T09:28:17.280Z,75.98
2019-02-17T09:29:23.224Z,75.26
2019-02-17T09:30:29.159Z,75.63
2019-02-17T09:31:35.149Z,75.21
2019-02-17T09:32:41.101Z,75.11
2019-02-17T09:33:46.985Z,74.69
2019-02-17T09:34:52.883Z,74.51
2019-02-17T09:35:58.570Z,74.05
2019-02-17T09:37:04.106Z,74.56
2019-02-17T09:38:10.049Z,74.68
2019-02-17T09:39:16.612Z,75.14
2019-02-17T09:40:22.986Z,74.56
2019-02-17T09:41:28.909Z,74.90
2019-02-17T09:42:34.913Z,74.27
2019-02-17T09:43:40.837Z,74.32
2019-02-17T09:44:46.854Z,72.39
2019-02-17T09:45:52.987Z,72.72
2019-02-17T09:46:59.195Z,73.69
2019-02-17T09:48:05.303Z,73.23
2019-02-17T09:49:11.263Z,73.04
2019-02-17T09:50:17.290Z,72.73
2019-02-17T09:51:23.222Z,71.79
2019-02-17T09:52:29.174Z,71.77
2019-02-17T09:53:35.247Z,70.57
2019-02-17T09:54:41.249Z,71.77
2019-02-17T09:55:47.308Z,71.37
2019-02-17T09:56:53.387Z,70.07
2019-02-17T09:57:59.446Z,69.24
2019-02-17T09:59:05.126Z,69.76
2019-02-17T10:00:12.411Z,69.47
2019-02-17T10:01:18.433Z,69.99
2019-02-17T10:02:26.802Z,69.32
2019-02-17T10:03:30.576Z,69.60
2019-02-17T10:04:36.505Z,70.34
2019-02-17T10:05:42.465Z,68.65
2019-02-17T10:06:48.675Z,68.92
2019-02-17T10:07:54.903Z,68.71
2019-02-17T10:09:00.905Z,69.11
2019-02-17T10:10:07.958Z,69.30
2019-02-17T10:11:13.943Z,70.34
2019-02-17T10:12:20.017Z,70.70
2019-02-17T10:13:26.147Z,67.87
2019-02-17T10:14:32.064Z,67.09
2019-02-17T10:15:37.912Z,67.15
2019-02-17T10:16:43.819Z,66.90
2019-02-17T10:17:49.797Z,67.73
2019-02-17T10:18:55.769Z,68.51
2019-02-17T10:20:01.684Z,68.12
2019-02-17T10:21:07.682Z,66.32
2019-02-17T10:22:14.025Z,66.29
2019-02-17T10:23:20.063Z,65.35
2019-02-17T10:24:25.970Z,64.64
2019-02-17T10:25:31.971Z,64.43
2019-02-17T10:26:37.861Z,64.34
2019-02-17T10:27:44.068Z,63.92
2019-02-17T10:28:50.009Z,64.41
2019-02-17T10:29:56.179Z,63.43
2019-02-17T10:31:02.237Z,64.12
2019-02-17T10:32:08.314Z,63.50
2019-02-17T10:33:14.290Z,63.98
2019-02-17T10:34:20.361Z,62.88
2019-02-17T10:35:26.576Z,62.56
2019-02-17T10:36:32.678Z,63.01
2019-02-17T10:37:38.734Z,62.12
2019-02-17T10:38:44.961Z,62.80
2019-02-17T10:39:50.739Z,62.53
2019-02-17T10:40:56.699Z,62.44
2019-02-17T10:42:02.643Z,63.43
2019-02-17T10:43:08.791Z,63.64
2019-02-17T10:44:14.982Z,63.67
2019-02-17T10:45:20.555Z,62.52
2019-02-17T10:46:26.496Z,62.22
2019-02-17T10:47:32.134Z,61.44
2019-02-17T10:48:38.066Z,62.06
2019-02-17T10:49:43.967Z,62.31
2019-02-17T10:50:49.899Z,61.71
2019-02-17T10:51:55.886Z,61.59
2019-02-17T10:53:01.945Z,62.27
2019-02-17T10:54:08.474Z,62.21
2019-02-17T10:55:13.949Z,61.41
2019-02-17T10:56:19.867Z,61.61
2019-02-17T10:57:26.009Z,62.46
2019-02-17T10:58:32.055Z,62.36
2019-02-17T10:59:38.104Z,62.38
2019-02-17T11:00:43.802Z,62.29
2019-02-17T11:01:49.880Z,62.33
2019-02-17T11:02:55.865Z,63.42
2019-02-17T11:04:01.298Z,64.94
2019-02-17T11:05:07.607Z,65.71
2019-02-17T11:06:14.180Z,63.03
2019-02-17T11:07:20.217Z,61.86
2019-02-17T11:08:26.279Z,63.37
2019-02-17T11:09:32.580Z,63.85
2019-02-17T11:10:38.589Z,63.91
2019-02-17T11:11:44.602Z,63.10
2019-02-17T11:12:50.728Z,61.59
2019-02-17T11:13:56.683Z,63.03
2019-02-17T11:15:02.657Z,61.86
2019-02-17T11:16:08.234Z,62.42
2019-02-17T11:17:14.165Z,62.26
2019-02-17T11:18:20.703Z,62.79
2019-02-17T11:19:26.888Z,60.40
2019-02-17T11:20:32.889Z,59.16
2019-02-17T11:21:38.452Z,58.91
2019-02-17T11:22:44.434Z,58.68
2019-02-17T11:23:50.517Z,60.12
2019-02-17T11:24:57.849Z,59.93
2019-02-17T11:26:02.577Z,59.22
2019-02-17T11:27:08.768Z,58.94
2019-02-17T11:28:14.785Z,59.48
2019-02-17T11:29:20.695Z,59.45
2019-02-17T11:30:26.630Z,57.99
2019-02-17T11:31:32.360Z,58.37
2019-02-17T11:32:38.324Z,58.50
2019-02-17T11:33:44.032Z,58.26
2019-02-17T11:34:49.959Z,58.17
2019-02-17T11:35:55.892Z,58.38
2019-02-17T11:37:01.816Z,57.81
2019-02-17T11:38:07.865Z,57.61
2019-02-17T11:39:13.778Z,57.83
2019-02-17T11:40:19.702Z,57.73
2019-02-17T11:41:25.631Z,57.48
2019-02-17T11:42:31.191Z,57.13
2019-02-17T11:43:37.392Z,57.43
2019-02-17T11:44:43.297Z,57.21
2019-02-17T11:45:49.215Z,56.24
2019-02-17T11:46:55.102Z,55.87
2019-02-17T11:48:01.005Z,56.55
2019-02-17T11:49:07.066Z,56.50
2019-02-17T11:50:12.679Z,56.62
2019-02-17T11:51:18.613Z,55.45
2019-02-17T11:52:27.366Z,56.00
2019-02-17T11:53:33.312Z,56.08
2019-02-17T11:54:39.242Z,57.22
2019-02-17T11:55:45.175Z,58.37
2019-02-17T11:56:51.116Z,58.79
2019-02-17T11:57:57.031Z,58.45
2019-02-17T11:59:02.686Z,56.21
2019-02-17T12:00:10.745Z,56.13
2019-02-17T12:01:16.699Z,58.92
2019-02-17T12:02:24.885Z,58.40
2019-02-17T12:03:28.691Z,58.05
2019-02-17T12:04:34.766Z,57.46
2019-02-17T12:05:40.977Z,58.49
2019-02-17T12:06:47.082Z,59.15
2019-02-17T12:07:53.182Z,54.97
2019-02-17T12:08:59.126Z,53.59
2019-02-17T12:10:04.853Z,54.43
2019-02-17T12:11:11.137Z,54.08
2019-02-17T12:12:17.034Z,53.63
2019-02-17T12:13:22.912Z,52.91
2019-02-17T12:14:31.114Z,52.37
2019-02-17T12:15:37.060Z,53.48
2019-02-17T12:16:43.122Z,52.99
2019-02-17T12:17:48.653Z,53.96
2019-02-17T12:18:54.582Z,55.32
2019-02-17T12:20:00.241Z,55.89
2019-02-17T12:21:07.701Z,56.17
2019-02-17T12:22:13.826Z,55.55
2019-02-17T12:23:27.136Z,54.70
2019-02-17T12:24:32.851Z,55.29
2019-02-17T12:25:41.325Z,56.15
2019-02-17T12:26:49.965Z,56.20
2019-02-17T12:27:55.520Z,55.88
2019-02-17T12:29:01.742Z,54.90
2019-02-17T12:30:06.747Z,55.55
2019-02-17T12:31:12.424Z,55.07
2019-02-17T12:32:18.089Z,55.73
2019-02-17T12:33:24.011Z,55.29
2019-02-17T12:34:29.995Z,55.36
2019-02-17T12:35:35.890Z,56.61
2019-02-17T12:36:41.770Z,56.32
2019-02-17T12:37:47.675Z,56.01
2019-02-17T12:38:53.733Z,53.50
2019-02-17T12:39:59.654Z,53.01
2019-02-17T12:41:05.591Z,52.14
2019-02-17T12:42:11.505Z,53.57
2019-02-17T12:43:17.425Z,53.25
2019-02-17T12:44:23.398Z,53.22
2019-02-17T12:45:29.312Z,53.44
2019-02-17T12:46:40.438Z,53.91
2019-02-17T12:47:58.214Z,52.82
2019-02-17T12:50:20.253Z,54.08
2019-02-17T12:51:27.167Z,54.29
2019-02-17T12:52:33.058Z,52.37
2019-02-17T12:53:39.099Z,52.32
2019-02-17T12:54:45.095Z,54.47
2019-02-17T12:55:50.990Z,53.81
2019-02-17T12:56:56.911Z,55.18
2019-02-17T12:58:02.786Z,55.67
2019-02-17T13:02:20.331Z,52.02
2019-02-17T13:03:28.552Z,52.46
2019-02-17T13:04:32.966Z,51.71
2019-02-17T13:05:38.907Z,51.47
2019-02-17T13:06:45.109Z,49.54
2019-02-17T13:07:51.077Z,48.21
2019-02-17T13:08:57.050Z,48.57
2019-02-17T13:10:03.059Z,48.95
2019-02-17T13:11:12.729Z,49.02
2019-02-17T13:12:18.632Z,48.01
2019-02-17T13:13:24.554Z,48.37
2019-02-17T13:14:30.515Z,48.35
2019-02-17T13:15:36.445Z,47.65
2019-02-17T13:16:42.411Z,48.11
2019-02-17T13:17:48.293Z,48.85
2019-02-17T13:18:54.192Z,49.61
2019-02-17T13:20:00.314Z,49.23
2019-02-17T13:21:05.905Z,47.76
2019-02-17T13:22:11.837Z,49.86
2019-02-17T13:23:17.777Z,48.06
2019-02-17T13:24:23.822Z,47.53
2019-02-17T13:25:29.798Z,47.18
2019-02-17T13:26:35.726Z,47.08
2019-02-17T13:27:41.633Z,48.50
2019-02-17T13:28:47.585Z,49.86
2019-02-17T13:29:53.541Z,47.14
2019-02-17T13:30:59.430Z,45.82
2019-02-17T13:32:06.074Z,45.68
2019-02-17T13:33:11.997Z,44.99
2019-02-17T13:34:18.600Z,45.33
2019-02-17T13:35:24.915Z,45.35
2019-02-17T13:36:30.830Z,45.10
2019-02-17T13:37:36.437Z,45.13
2019-02-17T13:38:42.327Z,45.50
2019-02-17T13:39:48.327Z,46.76
2019-02-17T13:40:54.241Z,46.03
2019-02-17T13:42:00.132Z,47.02
2019-02-17T13:43:06.049Z,47.31
2019-02-17T13:44:12.719Z,46.73
2019-02-17T13:45:17.986Z,45.99
2019-02-17T13:46:23.884Z,45.83
2019-02-17T13:47:29.785Z,45.78
2019-02-17T13:48:38.169Z,45.95
2019-02-17T13:49:44.136Z,48.23
2019-02-17T13:50:50.102Z,47.11
2019-02-17T13:51:56.009Z,45.77
2019-02-17T13:53:11.348Z,46.53
2019-02-17T13:54:07.883Z,48.62
2019-02-17T13:55:14.790Z,48.04
2019-02-17T13:56:20.830Z,46.86
2019-02-17T13:57:26.729Z,45.33
2019-02-17T13:58:32.748Z,44.78
2019-02-17T13:59:38.682Z,44.68
2019-02-17T14:00:44.601Z,43.99
2019-02-17T14:01:50.543Z,43.19
2019-02-17T14:02:56.441Z,44.68
2019-02-17T14:04:02.413Z,45.35
2019-02-17T14:05:08.567Z,46.17
2019-02-17T14:06:14.768Z,47.49
2019-02-17T14:07:20.703Z,46.62
2019-02-17T14:08:26.595Z,47.73
2019-02-17T14:09:32.468Z,46.30
2019-02-17T14:10:39.874Z,46.87
2019-02-17T14:11:45.767Z,47.61
2019-02-17T14:12:52.432Z,46.73
2019-02-17T14:13:58.383Z,45.51
2019-02-17T14:15:03.635Z,45.91
2019-02-17T14:16:12.803Z,44.94
2019-02-17T14:17:19.164Z,45.16
2019-02-17T14:18:25.115Z,44.22
2019-02-17T14:19:31.070Z,43.97
2019-02-17T14:20:37.698Z,45.37
2019-02-17T14:21:44.564Z,45.95